Terminal Aerodrome Forecast
Issued by NWS

Home | Current Version | Previous Version | Text Only | Print | Product List | Glossary On
Versions: 1 2 3 4 5 6 7 8 9 10 11 12 13 14 15 16 17 18
000
FTUS46 KPDT 041740
TAFDLS
TAF
KDLS 041740Z 0418/0518 30012G20KT P6SM VCSH SCT060 BKN080
     FM042000 30018G26KT P6SM SCT070 BKN100
     FM050300 30010KT P6SM SCT160 SCT200
     FM050900 VRB04KT P6SM SCT080 BKN130=

USA.gov is the U.S. government's official web portal to all federal, state and local government web resources and services.